sensor_id;sensor_type;location;lat;lon;timestamp;temperature;humidity
31046;DHT22;17711;54.018;9.300;2023-04-24T00:01:12;12.80;99.90
31046;DHT22;17711;54.018;9.300;2023-04-24T00:03:42;12.80;99.90
31046;DHT22;17711;54.018;9.300;2023-04-24T00:06:11;12.90;99.90
31046;DHT22;17711;54.018;9.300;2023-04-24T00:08:39;13.00;99.90
31046;DHT22;17711;54.018;9.300;2023-04-24T00:11:08;13.10;99.90
31046;DHT22;17711;54.018;9.300;2023-04-24T00:13:37;13.10;99.90
31046;DHT22;17711;54.018;9.300;2023-04-24T00:16:06;13.10;99.90
31046;DHT22;17711;54.018;9.300;2023-04-24T00:18:36;13.10;99.90
31046;DHT22;17711;54.018;9.300;2023-04-24T00:21:05;13.10;99.90
31046;DHT22;17711;54.018;9.300;2023-04-24T00:23:34;13.10;99.90
31046;DHT22;17711;54.018;9.300;2023-04-24T00:26:02;13.10;99.90
31046;DHT22;17711;54.018;9.300;2023-04-24T00:28:31;13.00;99.90
31046;DHT22;17711;54.018;9.300;2023-04-24T00:30:59;13.00;99.90
31046;DHT22;17711;54.018;9.300;2023-04-24T00:33:28;13.10;99.90
31046;DHT22;17711;54.018;9.300;2023-04-24T00:35:58;13.20;99.90
31046;DHT22;17711;54.018;9.300;2023-04-24T00:38:27;13.10;99.90
31046;DHT22;17711;54.018;9.300;2023-04-24T00:40:56;13.10;99.90
31046;DHT22;17711;54.018;9.300;2023-04-24T00:43:24;13.20;99.90
31046;DHT22;17711;54.018;9.300;2023-04-24T00:45:54;13.10;99.90
31046;DHT22;17711;54.018;9.300;2023-04-24T00:48:23;13.10;99.90
31046;DHT22;17711;54.018;9.300;2023-04-24T00:50:53;13.10;99.90
31046;DHT22;17711;54.018;9.300;2023-04-24T00:53:23;13.10;99.90
31046;DHT22;17711;54.018;9.300;2023-04-24T00:55:52;13.10;99.90
31046;DHT22;17711;54.018;9.300;2023-04-24T00:58:21;13.10;99.90
31046;DHT22;17711;54.018;9.300;2023-04-24T01:00:50;13.00;99.90
31046;DHT22;17711;54.018;9.300;2023-04-24T01:03:21;13.00;99.90
31046;DHT22;17711;54.018;9.300;2023-04-24T01:05:50;13.00;99.90
31046;DHT22;17711;54.018;9.300;2023-04-24T01:08:19;13.00;99.90
31046;DHT22;17711;54.018;9.300;2023-04-24T01:10:51;12.90;99.90
31046;DHT22;17711;54.018;9.300;2023-04-24T01:13:20;13.00;99.90
31046;DHT22;17711;54.018;9.300;2023-04-24T01:15:49;13.00;99.90
31046;DHT22;17711;54.018;9.300;2023-04-24T01:18:17;13.00;99.90
31046;DHT22;17711;54.018;9.300;2023-04-24T01:20:46;12.90;99.90
31046;DHT22;17711;54.018;9.300;2023-04-24T01:23:17;12.90;99.90
31046;DHT22;17711;54.018;9.300;2023-04-24T01:25:45;12.80;99.90
31046;DHT22;17711;54.018;9.300;2023-04-24T01:28:14;12.90;99.90
31046;DHT22;17711;54.018;9.300;2023-04-24T01:30:44;12.90;99.90
31046;DHT22;17711;54.018;9.300;2023-04-24T01:33:13;12.80;99.90
31046;DHT22;17711;54.018;9.300;2023-04-24T01:35:41;12.80;99.90
31046;DHT22;17711;54.018;9.300;2023-04-24T01:38:10;12.80;99.90
31046;DHT22;17711;54.018;9.300;2023-04-24T01:40:40;12.90;99.90
31046;DHT22;17711;54.018;9.300;2023-04-24T01:43:09;12.90;99.90
31046;DHT22;17711;54.018;9.300;2023-04-24T01:45:38;12.90;99.90
31046;DHT22;17711;54.018;9.300;2023-04-24T01:48:07;12.90;99.90
31046;DHT22;17711;54.018;9.300;2023-04-24T01:50:35;12.90;99.90
31046;DHT22;17711;54.018;9.300;2023-04-24T01:53:04;12.90;99.90
31046;DHT22;17711;54.018;9.300;2023-04-24T01:55:32;12.90;99.90
31046;DHT22;17711;54.018;9.300;2023-04-24T01:58:03;12.90;99.90
31046;DHT22;17711;54.018;9.300;2023-04-24T02:00:31;12.90;99.90
31046;DHT22;17711;54.018;9.300;2023-04-24T02:03:00;12.90;99.90
31046;DHT22;17711;54.018;9.300;2023-04-24T02:05:29;12.90;99.90
31046;DHT22;17711;54.018;9.300;2023-04-24T02:07:58;12.90;99.90
31046;DHT22;17711;54.018;9.300;2023-04-24T02:10:26;13.00;99.90
31046;DHT22;17711;54.018;9.300;2023-04-24T02:12:58;13.10;99.90
31046;DHT22;17711;54.018;9.300;2023-04-24T02:15:29;13.10;99.90
31046;DHT22;17711;54.018;9.300;2023-04-24T02:17:58;13.00;99.90
31046;DHT22;17711;54.018;9.300;2023-04-24T02:20:26;13.00;99.90
31046;DHT22;17711;54.018;9.300;2023-04-24T02:22:56;13.00;99.90
31046;DHT22;17711;54.018;9.300;2023-04-24T02:25:24;12.90;99.90
31046;DHT22;17711;54.018;9.300;2023-04-24T02:27:53;13.00;99.90
31046;DHT22;17711;54.018;9.300;2023-04-24T02:30:22;13.00;99.90
31046;DHT22;17711;54.018;9.300;2023-04-24T02:32:52;13.00;99.90
31046;DHT22;17711;54.018;9.300;2023-04-24T02:35:20;13.10;99.90
31046;DHT22;17711;54.018;9.300;2023-04-24T02:37:49;13.10;99.90
31046;DHT22;17711;54.018;9.300;2023-04-24T02:40:17;13.00;99.90
31046;DHT22;17711;54.018;9.300;2023-04-24T02:42:46;12.90;99.90
31046;DHT22;17711;54.018;9.300;2023-04-24T02:45:15;12.90;99.90
31046;DHT22;17711;54.018;9.300;2023-04-24T02:47:43;12.90;99.90
31046;DHT22;17711;54.018;9.300;2023-04-24T02:50:14;13.00;99.90
31046;DHT22;17711;54.018;9.300;2023-04-24T02:52:44;13.00;99.90
31046;DHT22;17711;54.018;9.300;2023-04-24T02:55:14;13.00;99.90
31046;DHT22;17711;54.018;9.300;2023-04-24T02:57:43;12.90;99.90
31046;DHT22;17711;54.018;9.300;2023-04-24T03:00:16;12.90;99.90
31046;DHT22;17711;54.018;9.300;2023-04-24T03:02:45;12.90;99.90
31046;DHT22;17711;54.018;9.300;2023-04-24T03:05:17;12.90;99.90
31046;DHT22;17711;54.018;9.300;2023-04-24T03:07:47;12.80;99.90
31046;DHT22;17711;54.018;9.300;2023-04-24T03:10:17;12.80;99.90
31046;DHT22;17711;54.018;9.300;2023-04-24T03:12:47;12.80;99.90
31046;DHT22;17711;54.018;9.300;2023-04-24T03:15:16;12.80;99.90
31046;DHT22;17711;54.018;9.300;2023-04-24T03:17:45;12.70;99.90
31046;DHT22;17711;54.018;9.300;2023-04-24T03:20:15;12.70;99.90
31046;DHT22;17711;54.018;9.300;2023-04-24T03:22:44;12.60;99.90
31046;DHT22;17711;54.018;9.300;2023-04-24T03:25:13;12.60;99.90
31046;DHT22;17711;54.018;9.300;2023-04-24T03:27:43;12.50;99.90
31046;DHT22;17711;54.018;9.300;2023-04-24T03:30:12;12.50;99.90
31046;DHT22;17711;54.018;9.300;2023-04-24T03:32:41;12.40;99.90
31046;DHT22;17711;54.018;9.300;2023-04-24T03:35:10;12.40;99.90
31046;DHT22;17711;54.018;9.300;2023-04-24T03:37:43;12.40;99.90
31046;DHT22;17711;54.018;9.300;2023-04-24T03:40:15;12.40;99.90
31046;DHT22;17711;54.018;9.300;2023-04-24T03:42:45;12.40;99.90
31046;DHT22;17711;54.018;9.300;2023-04-24T03:45:14;12.40;99.90
31046;DHT22;17711;54.018;9.300;2023-04-24T03:47:42;12.40;99.90
31046;DHT22;17711;54.018;9.300;2023-04-24T03:50:12;12.40;99.90
31046;DHT22;17711;54.018;9.300;2023-04-24T03:52:42;12.40;99.90
31046;DHT22;17711;54.018;9.300;2023-04-24T03:55:13;12.40;99.90
31046;DHT22;17711;54.018;9.300;2023-04-24T03:57:46;12.40;99.90
31046;DHT22;17711;54.018;9.300;2023-04-24T04:00:15;12.40;99.90
31046;DHT22;17711;54.018;9.300;2023-04-24T04:02:46;12.40;99.90
31046;DHT22;17711;54.018;9.300;2023-04-24T04:05:16;12.30;99.90
31046;DHT22;17711;54.018;9.300;2023-04-24T04:07:46;12.30;99.90
31046;DHT22;17711;54.018;9.300;2023-04-24T04:10:14;12.40;99.90
31046;DHT22;17711;54.018;9.300;2023-04-24T04:12:44;12.40;99.90
31046;DHT22;17711;54.018;9.300;2023-04-24T04:15:12;12.40;99.90
31046;DHT22;17711;54.018;9.300;2023-04-24T04:17:41;12.30;99.90
31046;DHT22;17711;54.018;9.300;2023-04-24T04:20:10;12.40;99.90
31046;DHT22;17711;54.018;9.300;2023-04-24T04:22:39;12.40;99.90
31046;DHT22;17711;54.018;9.300;2023-04-24T04:25:12;12.40;99.90
31046;DHT22;17711;54.018;9.300;2023-04-24T04:27:41;12.30;99.90
31046;DHT22;17711;54.018;9.300;2023-04-24T04:30:10;12.30;99.90
31046;DHT22;17711;54.018;9.300;2023-04-24T04:32:38;12.40;99.90
31046;DHT22;17711;54.018;9.300;2023-04-24T04:35:07;12.40;99.90
31046;DHT22;17711;54.018;9.300;2023-04-24T04:37:36;12.40;99.90
31046;DHT22;17711;54.018;9.300;2023-04-24T04:40:06;12.50;99.90
31046;DHT22;17711;54.018;9.300;2023-04-24T04:42:37;12.50;99.90
31046;DHT22;17711;54.018;9.300;2023-04-24T04:45:08;12.50;99.90
31046;DHT22;17711;54.018;9.300;2023-04-24T04:47:40;12.50;99.90
31046;DHT22;17711;54.018;9.300;2023-04-24T04:50:10;12.50;99.90
31046;DHT22;17711;54.018;9.300;2023-04-24T04:52:38;12.50;99.90
31046;DHT22;17711;54.018;9.300;2023-04-24T04:55:08;12.50;99.90
31046;DHT22;17711;54.018;9.300;2023-04-24T04:57:37;12.60;99.90
31046;DHT22;17711;54.018;9.300;2023-04-24T05:00:07;12.50;99.90
31046;DHT22;17711;54.018;9.300;2023-04-24T05:02:37;12.50;99.90
31046;DHT22;17711;54.018;9.300;2023-04-24T05:05:07;12.60;99.90
31046;DHT22;17711;54.018;9.300;2023-04-24T05:07:36;12.70;99.90
31046;DHT22;17711;54.018;9.300;2023-04-24T05:10:05;12.70;99.90
31046;DHT22;17711;54.018;9.300;2023-04-24T05:12:34;12.70;99.90
31046;DHT22;17711;54.018;9.300;2023-04-24T05:15:05;12.70;99.90
31046;DHT22;17711;54.018;9.300;2023-04-24T05:17:33;12.80;99.90
31046;DHT22;17711;54.018;9.300;2023-04-24T05:20:03;12.90;99.90
31046;DHT22;17711;54.018;9.300;2023-04-24T05:22:32;13.00;99.90
31046;DHT22;17711;54.018;9.300;2023-04-24T05:25:00;13.10;99.90
31046;DHT22;17711;54.018;9.300;2023-04-24T05:27:29;13.20;99.90
31046;DHT22;17711;54.018;9.300;2023-04-24T05:29:58;13.40;99.90
31046;DHT22;17711;54.018;9.300;2023-04-24T05:32:28;13.50;99.90
31046;DHT22;17711;54.018;9.300;2023-04-24T05:34:57;13.50;99.90
31046;DHT22;17711;54.018;9.300;2023-04-24T05:37:25;13.40;99.90
31046;DHT22;17711;54.018;9.300;2023-04-24T05:39:54;13.40;99.90
31046;DHT22;17711;54.018;9.300;2023-04-24T05:42:23;13.40;99.90
31046;DHT22;17711;54.018;9.300;2023-04-24T05:44:52;13.30;99.90
31046;DHT22;17711;54.018;9.300;2023-04-24T05:47:24;13.30;99.90
31046;DHT22;17711;54.018;9.300;2023-04-24T05:49:55;13.30;99.90
31046;DHT22;17711;54.018;9.300;2023-04-24T05:52:23;13.30;99.90
31046;DHT22;17711;54.018;9.300;2023-04-24T05:54:52;13.20;99.90
31046;DHT22;17711;54.018;9.300;2023-04-24T05:57:21;13.20;99.90
31046;DHT22;17711;54.018;9.300;2023-04-24T05:59:49;13.30;99.90
31046;DHT22;17711;54.018;9.300;2023-04-24T06:02:18;13.40;99.90
31046;DHT22;17711;54.018;9.300;2023-04-24T06:04:47;13.50;99.90
31046;DHT22;17711;54.018;9.300;2023-04-24T06:07:17;13.50;99.90
31046;DHT22;17711;54.018;9.300;2023-04-24T06:09:45;13.70;99.90
31046;DHT22;17711;54.018;9.300;2023-04-24T06:12:14;13.70;99.90
31046;DHT22;17711;54.018;9.300;2023-04-24T06:14:43;13.70;99.90
31046;DHT22;17711;54.018;9.300;2023-04-24T06:17:12;13.60;99.90
31046;DHT22;17711;54.018;9.300;2023-04-24T06:19:41;13.50;99.90
31046;DHT22;17711;54.018;9.300;2023-04-24T06:22:09;13.40;99.90
31046;DHT22;17711;54.018;9.300;2023-04-24T06:24:39;13.50;99.90
31046;DHT22;17711;54.018;9.300;2023-04-24T06:27:08;13.40;99.90
31046;DHT22;17711;54.018;9.300;2023-04-24T06:29:37;13.40;99.90
31046;DHT22;17711;54.018;9.300;2023-04-24T06:32:06;13.40;99.90
31046;DHT22;17711;54.018;9.300;2023-04-24T06:34:34;13.30;99.90
31046;DHT22;17711;54.018;9.300;2023-04-24T06:37:03;13.30;99.90
31046;DHT22;17711;54.018;9.300;2023-04-24T06:39:32;13.30;99.90
31046;DHT22;17711;54.018;9.300;2023-04-24T06:42:02;13.30;99.90
31046;DHT22;17711;54.018;9.300;2023-04-24T06:44:30;13.40;99.90
31046;DHT22;17711;54.018;9.300;2023-04-24T06:46:59;13.40;99.90
31046;DHT22;17711;54.018;9.300;2023-04-24T06:49:28;13.40;99.90
31046;DHT22;17711;54.018;9.300;2023-04-24T06:51:57;13.40;99.90
31046;DHT22;17711;54.018;9.300;2023-04-24T06:54:26;13.40;99.90
31046;DHT22;17711;54.018;9.300;2023-04-24T06:56:55;13.30;99.90
31046;DHT22;17711;54.018;9.300;2023-04-24T06:59:25;13.20;99.90
31046;DHT22;17711;54.018;9.300;2023-04-24T07:01:54;13.10;99.90
31046;DHT22;17711;54.018;9.300;2023-04-24T07:04:23;13.10;99.90
31046;DHT22;17711;54.018;9.300;2023-04-24T07:06:53;13.00;99.90
31046;DHT22;17711;54.018;9.300;2023-04-24T07:09:23;13.10;99.90
31046;DHT22;17711;54.018;9.300;2023-04-24T07:11:52;13.10;99.90
31046;DHT22;17711;54.018;9.300;2023-04-24T07:14:21;13.10;99.90
31046;DHT22;17711;54.018;9.300;2023-04-24T07:16:51;13.20;99.90
31046;DHT22;17711;54.018;9.300;2023-04-24T07:19:19;13.20;99.90
31046;DHT22;17711;54.018;9.300;2023-04-24T07:21:48;13.30;99.90
31046;DHT22;17711;54.018;9.300;2023-04-24T07:24:16;13.40;99.90
31046;DHT22;17711;54.018;9.300;2023-04-24T07:26:48;13.30;99.90
31046;DHT22;17711;54.018;9.300;2023-04-24T07:29:18;13.40;99.90
31046;DHT22;17711;54.018;9.300;2023-04-24T07:31:48;13.50;99.90
31046;DHT22;17711;54.018;9.300;2023-04-24T07:34:18;13.50;99.90
31046;DHT22;17711;54.018;9.300;2023-04-24T07:36:46;13.70;99.90
31046;DHT22;17711;54.018;9.300;2023-04-24T07:39:15;13.80;99.90
31046;DHT22;17711;54.018;9.300;2023-04-24T07:41:43;13.80;99.90
31046;DHT22;17711;54.018;9.300;2023-04-24T07:44:12;13.90;99.90
31046;DHT22;17711;54.018;9.300;2023-04-24T07:46:44;13.90;99.90
31046;DHT22;17711;54.018;9.300;2023-04-24T07:49:18;14.00;99.90
31046;DHT22;17711;54.018;9.300;2023-04-24T07:51:47;14.00;99.90
31046;DHT22;17711;54.018;9.300;2023-04-24T07:54:16;14.10;99.90
31046;DHT22;17711;54.018;9.300;2023-04-24T07:56:44;14.20;99.90
31046;DHT22;17711;54.018;9.300;2023-04-24T07:59:13;14.20;99.90
31046;DHT22;17711;54.018;9.300;2023-04-24T08:01:41;14.40;99.90
31046;DHT22;17711;54.018;9.300;2023-04-24T08:04:09;14.30;99.90
31046;DHT22;17711;54.018;9.300;2023-04-24T08:06:40;14.20;99.90
31046;DHT22;17711;54.018;9.300;2023-04-24T08:09:08;14.20;99.90
31046;DHT22;17711;54.018;9.300;2023-04-24T08:11:37;14.40;99.90
31046;DHT22;17711;54.018;9.300;2023-04-24T08:14:05;14.80;99.90
31046;DHT22;17711;54.018;9.300;2023-04-24T08:16:35;14.90;99.90
31046;DHT22;17711;54.018;9.300;2023-04-24T08:19:03;15.00;99.90
31046;DHT22;17711;54.018;9.300;2023-04-24T08:21:32;15.00;99.90
31046;DHT22;17711;54.018;9.300;2023-04-24T08:24:02;14.90;99.90
31046;DHT22;17711;54.018;9.300;2023-04-24T08:26:34;14.70;99.90
31046;DHT22;17711;54.018;9.300;2023-04-24T08:29:04;14.60;99.90
31046;DHT22;17711;54.018;9.300;2023-04-24T08:31:33;14.50;99.90
31046;DHT22;17711;54.018;9.300;2023-04-24T08:34:02;14.40;99.90
31046;DHT22;17711;54.018;9.300;2023-04-24T08:36:32;14.50;99.90
31046;DHT22;17711;54.018;9.300;2023-04-24T08:39:14;14.80;99.90
31046;DHT22;17711;54.018;9.300;2023-04-24T08:41:44;14.90;99.90
31046;DHT22;17711;54.018;9.300;2023-04-24T08:44:13;14.90;99.90
31046;DHT22;17711;54.018;9.300;2023-04-24T08:46:43;14.90;99.90
31046;DHT22;17711;54.018;9.300;2023-04-24T08:49:15;14.70;99.90
31046;DHT22;17711;54.018;9.300;2023-04-24T08:51:45;14.60;99.90
31046;DHT22;17711;54.018;9.300;2023-04-24T08:54:16;14.40;99.90
31046;DHT22;17711;54.018;9.300;2023-04-24T08:56:47;14.40;99.90
31046;DHT22;17711;54.018;9.300;2023-04-24T08:59:16;14.30;99.90
31046;DHT22;17711;54.018;9.300;2023-04-24T09:01:45;14.20;99.90
31046;DHT22;17711;54.018;9.300;2023-04-24T09:04:16;14.10;99.90
31046;DHT22;17711;54.018;9.300;2023-04-24T09:06:47;14.10;99.90
31046;DHT22;17711;54.018;9.300;2023-04-24T09:09:18;14.10;99.90
31046;DHT22;17711;54.018;9.300;2023-04-24T09:11:47;14.10;99.90
31046;DHT22;17711;54.018;9.300;2023-04-24T09:14:17;14.20;99.90
31046;DHT22;17711;54.018;9.300;2023-04-24T09:16:47;14.20;99.90
31046;DHT22;17711;54.018;9.300;2023-04-24T09:19:16;14.20;99.90
31046;DHT22;17711;54.018;9.300;2023-04-24T09:21:46;14.20;99.90
31046;DHT22;17711;54.018;9.300;2023-04-24T09:24:17;14.20;99.90
31046;DHT22;17711;54.018;9.300;2023-04-24T09:26:55;14.20;99.90
31046;DHT22;17711;54.018;9.300;2023-04-24T09:29:25;14.20;99.90
31046;DHT22;17711;54.018;9.300;2023-04-24T09:31:53;14.20;99.90
31046;DHT22;17711;54.018;9.300;2023-04-24T09:34:23;14.10;99.90
31046;DHT22;17711;54.018;9.300;2023-04-24T09:36:52;14.10;99.90
31046;DHT22;17711;54.018;9.300;2023-04-24T09:39:23;14.10;99.90
31046;DHT22;17711;54.018;9.300;2023-04-24T09:41:53;14.20;99.90
31046;DHT22;17711;54.018;9.300;2023-04-24T09:44:23;14.20;99.90
31046;DHT22;17711;54.018;9.300;2023-04-24T09:46:54;14.20;99.90
31046;DHT22;17711;54.018;9.300;2023-04-24T09:49:24;14.20;99.90
31046;DHT22;17711;54.018;9.300;2023-04-24T09:52:03;14.20;99.90
31046;DHT22;17711;54.018;9.300;2023-04-24T09:54:33;14.20;99.90
31046;DHT22;17711;54.018;9.300;2023-04-24T09:57:04;14.10;99.90
31046;DHT22;17711;54.018;9.300;2023-04-24T09:59:32;13.90;99.90
31046;DHT22;17711;54.018;9.300;2023-04-24T10:02:03;13.90;99.90
31046;DHT22;17711;54.018;9.300;2023-04-24T10:04:54;13.90;99.90
31046;DHT22;17711;54.018;9.300;2023-04-24T10:07:25;13.90;99.90
31046;DHT22;17711;54.018;9.300;2023-04-24T10:09:56;13.90;99.90
31046;DHT22;17711;54.018;9.300;2023-04-24T10:12:25;13.80;99.90
31046;DHT22;17711;54.018;9.300;2023-04-24T10:14:56;13.70;99.90
31046;DHT22;17711;54.018;9.300;2023-04-24T10:17:26;13.70;99.90
31046;DHT22;17711;54.018;9.300;2023-04-24T10:19:56;13.60;99.90
31046;DHT22;17711;54.018;9.300;2023-04-24T10:22:27;13.70;99.90
31046;DHT22;17711;54.018;9.300;2023-04-24T10:24:59;13.70;99.90
31046;DHT22;17711;54.018;9.300;2023-04-24T10:27:28;13.70;99.90
31046;DHT22;17711;54.018;9.300;2023-04-24T10:29:58;13.70;99.90
31046;DHT22;17711;54.018;9.300;2023-04-24T10:32:28;13.70;99.90
31046;DHT22;17711;54.018;9.300;2023-04-24T10:34:57;13.70;99.90
31046;DHT22;17711;54.018;9.300;2023-04-24T10:37:26;13.70;99.90
31046;DHT22;17711;54.018;9.300;2023-04-24T10:40:00;13.70;99.90
31046;DHT22;17711;54.018;9.300;2023-04-24T10:42:28;13.70;99.90
31046;DHT22;17711;54.018;9.300;2023-04-24T10:44:57;13.80;99.90
31046;DHT22;17711;54.018;9.300;2023-04-24T10:47:26;13.80;99.90
31046;DHT22;17711;54.018;9.300;2023-04-24T10:49:59;14.00;99.90
31046;DHT22;17711;54.018;9.300;2023-04-24T10:52:46;14.10;99.90
31046;DHT22;17711;54.018;9.300;2023-04-24T10:55:18;14.20;99.90
31046;DHT22;17711;54.018;9.300;2023-04-24T10:58:07;14.20;99.90
31046;DHT22;17711;54.018;9.300;2023-04-24T11:00:36;14.20;99.90
31046;DHT22;17711;54.018;9.300;2023-04-24T11:03:06;14.20;99.90
31046;DHT22;17711;54.018;9.300;2023-04-24T11:05:53;14.20;99.90
31046;DHT22;17711;54.018;9.300;2023-04-24T11:08:29;14.20;99.90
31046;DHT22;17711;54.018;9.300;2023-04-24T11:11:01;14.10;99.90
31046;DHT22;17711;54.018;9.300;2023-04-24T11:14:01;14.00;99.90
31046;DHT22;17711;54.018;9.300;2023-04-24T11:16:32;13.90;99.90
31046;DHT22;17711;54.018;9.300;2023-04-24T11:19:03;14.00;99.90
31046;DHT22;17711;54.018;9.300;2023-04-24T11:21:36;14.00;99.90
31046;DHT22;17711;54.018;9.300;2023-04-24T11:24:24;14.00;99.90
31046;DHT22;17711;54.018;9.300;2023-04-24T11:26:56;14.00;99.90
31046;DHT22;17711;54.018;9.300;2023-04-24T11:29:41;14.00;99.90
31046;DHT22;17711;54.018;9.300;2023-04-24T11:32:35;13.80;99.90
31046;DHT22;17711;54.018;9.300;2023-04-24T11:35:05;13.70;99.90
31046;DHT22;17711;54.018;9.300;2023-04-24T11:37:36;13.50;99.90
31046;DHT22;17711;54.018;9.300;2023-04-24T11:40:07;13.50;99.90
31046;DHT22;17711;54.018;9.300;2023-04-24T11:42:39;13.50;99.90
31046;DHT22;17711;54.018;9.300;2023-04-24T11:45:09;13.50;99.90
31046;DHT22;17711;54.018;9.300;2023-04-24T11:47:39;13.50;99.90
31046;DHT22;17711;54.018;9.300;2023-04-24T11:50:10;13.60;99.90
31046;DHT22;17711;54.018;9.300;2023-04-24T11:52:40;13.70;99.90
31046;DHT22;17711;54.018;9.300;2023-04-24T11:55:23;13.70;99.90
31046;DHT22;17711;54.018;9.300;2023-04-24T11:57:56;13.80;99.90
31046;DHT22;17711;54.018;9.300;2023-04-24T12:00:26;13.80;99.90
31046;DHT22;17711;54.018;9.300;2023-04-24T12:03:05;14.00;99.90
31046;DHT22;17711;54.018;9.300;2023-04-24T12:05:34;14.00;99.90
31046;DHT22;17711;54.018;9.300;2023-04-24T12:08:03;14.00;99.90
31046;DHT22;17711;54.018;9.300;2023-04-24T12:10:33;13.90;99.90
31046;DHT22;17711;54.018;9.300;2023-04-24T12:13:03;13.90;99.90
31046;DHT22;17711;54.018;9.300;2023-04-24T12:15:32;13.90;99.90
31046;DHT22;17711;54.018;9.300;2023-04-24T12:18:01;13.80;99.90
31046;DHT22;17711;54.018;9.300;2023-04-24T12:20:31;13.70;99.90
31046;DHT22;17711;54.018;9.300;2023-04-24T12:23:01;13.70;99.90
31046;DHT22;17711;54.018;9.300;2023-04-24T12:25:30;13.60;99.90
31046;DHT22;17711;54.018;9.300;2023-04-24T12:28:11;13.40;99.90
31046;DHT22;17711;54.018;9.300;2023-04-24T12:30:42;13.30;99.90
31046;DHT22;17711;54.018;9.300;2023-04-24T12:33:12;13.20;99.90
31046;DHT22;17711;54.018;9.300;2023-04-24T12:35:41;13.10;99.90
31046;DHT22;17711;54.018;9.300;2023-04-24T12:38:11;13.10;99.90
31046;DHT22;17711;54.018;9.300;2023-04-24T12:40:42;13.10;99.90
31046;DHT22;17711;54.018;9.300;2023-04-24T12:43:16;13.20;99.90
31046;DHT22;17711;54.018;9.300;2023-04-24T12:45:45;13.20;99.90
31046;DHT22;17711;54.018;9.300;2023-04-24T12:48:14;13.20;99.90
31046;DHT22;17711;54.018;9.300;2023-04-24T12:50:43;13.20;99.90
31046;DHT22;17711;54.018;9.300;2023-04-24T12:53:14;13.20;99.90
31046;DHT22;17711;54.018;9.300;2023-04-24T12:55:43;13.20;99.90
31046;DHT22;17711;54.018;9.300;2023-04-24T12:58:11;13.10;99.90
31046;DHT22;17711;54.018;9.300;2023-04-24T13:00:41;13.10;99.90
31046;DHT22;17711;54.018;9.300;2023-04-24T13:03:13;13.10;99.90
31046;DHT22;17711;54.018;9.300;2023-04-24T13:05:42;13.00;99.90
31046;DHT22;17711;54.018;9.300;2023-04-24T13:08:11;12.90;99.90
31046;DHT22;17711;54.018;9.300;2023-04-24T13:10:40;12.80;99.90
31046;DHT22;17711;54.018;9.300;2023-04-24T13:13:09;12.70;99.90
31046;DHT22;17711;54.018;9.300;2023-04-24T13:15:37;12.60;99.90
31046;DHT22;17711;54.018;9.300;2023-04-24T13:18:07;12.50;99.90
31046;DHT22;17711;54.018;9.300;2023-04-24T13:20:36;12.50;99.90
31046;DHT22;17711;54.018;9.300;2023-04-24T13:23:04;12.40;99.90
31046;DHT22;17711;54.018;9.300;2023-04-24T13:25:36;12.20;99.90
31046;DHT22;17711;54.018;9.300;2023-04-24T13:28:06;12.20;99.90
31046;DHT22;17711;54.018;9.300;2023-04-24T13:30:34;12.20;99.90
31046;DHT22;17711;54.018;9.300;2023-04-24T13:33:03;12.10;99.90
31046;DHT22;17711;54.018;9.300;2023-04-24T13:35:33;12.10;99.90
31046;DHT22;17711;54.018;9.300;2023-04-24T13:38:02;12.10;99.90
31046;DHT22;17711;54.018;9.300;2023-04-24T13:40:33;12.10;99.90
31046;DHT22;17711;54.018;9.300;2023-04-24T13:43:02;12.20;99.90
31046;DHT22;17711;54.018;9.300;2023-04-24T13:45:30;12.20;99.90
31046;DHT22;17711;54.018;9.300;2023-04-24T13:47:59;12.20;99.90
31046;DHT22;17711;54.018;9.300;2023-04-24T13:50:29;12.30;99.90
31046;DHT22;17711;54.018;9.300;2023-04-24T13:52:59;12.30;99.90
31046;DHT22;17711;54.018;9.300;2023-04-24T13:55:29;12.20;99.90
31046;DHT22;17711;54.018;9.300;2023-04-24T13:57:58;12.20;99.90
31046;DHT22;17711;54.018;9.300;2023-04-24T14:00:27;12.10;99.90
31046;DHT22;17711;54.018;9.300;2023-04-24T14:02:56;12.10;99.90
31046;DHT22;17711;54.018;9.300;2023-04-24T14:05:24;12.10;99.90
31046;DHT22;17711;54.018;9.300;2023-04-24T14:07:53;12.00;99.90
31046;DHT22;17711;54.018;9.300;2023-04-24T14:10:24;12.00;99.90
31046;DHT22;17711;54.018;9.300;2023-04-24T14:12:52;12.00;99.90
31046;DHT22;17711;54.018;9.300;2023-04-24T14:15:21;11.90;99.90
31046;DHT22;17711;54.018;9.300;2023-04-24T14:17:50;11.90;99.90
31046;DHT22;17711;54.018;9.300;2023-04-24T14:20:18;11.80;99.90
31046;DHT22;17711;54.018;9.300;2023-04-24T14:22:47;11.70;99.90
31046;DHT22;17711;54.018;9.300;2023-04-24T14:25:15;11.60;99.90
31046;DHT22;17711;54.018;9.300;2023-04-24T14:27:46;11.60;99.90
31046;DHT22;17711;54.018;9.300;2023-04-24T14:30:15;11.50;99.90
31046;DHT22;17711;54.018;9.300;2023-04-24T14:32:45;11.50;99.90
31046;DHT22;17711;54.018;9.300;2023-04-24T14:35:14;11.40;99.90
31046;DHT22;17711;54.018;9.300;2023-04-24T14:37:42;11.30;99.90
31046;DHT22;17711;54.018;9.300;2023-04-24T14:40:11;11.30;99.90
31046;DHT22;17711;54.018;9.300;2023-04-24T14:43:01;11.30;99.90
31046;DHT22;17711;54.018;9.300;2023-04-24T14:45:30;11.30;99.90
31046;DHT22;17711;54.018;9.300;2023-04-24T14:47:58;11.30;99.90
31046;DHT22;17711;54.018;9.300;2023-04-24T14:50:27;11.30;99.90
31046;DHT22;17711;54.018;9.300;2023-04-24T14:52:56;11.30;99.90
31046;DHT22;17711;54.018;9.300;2023-04-24T14:55:25;11.20;99.90
31046;DHT22;17711;54.018;9.300;2023-04-24T14:57:55;11.10;99.90
31046;DHT22;17711;54.018;9.300;2023-04-24T15:00:25;11.10;99.90
31046;DHT22;17711;54.018;9.300;2023-04-24T15:02:53;11.00;99.90
31046;DHT22;17711;54.018;9.300;2023-04-24T15:05:22;10.90;99.90
31046;DHT22;17711;54.018;9.300;2023-04-24T15:07:52;10.90;99.90
31046;DHT22;17711;54.018;9.300;2023-04-24T15:10:21;10.90;99.90
31046;DHT22;17711;54.018;9.300;2023-04-24T15:12:51;10.90;99.90
31046;DHT22;17711;54.018;9.300;2023-04-24T15:15:19;10.90;99.90
31046;DHT22;17711;54.018;9.300;2023-04-24T15:17:49;10.80;99.90
31046;DHT22;17711;54.018;9.300;2023-04-24T15:20:18;10.80;99.90
31046;DHT22;17711;54.018;9.300;2023-04-24T15:22:47;10.70;99.90
31046;DHT22;17711;54.018;9.300;2023-04-24T15:25:16;10.70;99.90
31046;DHT22;17711;54.018;9.300;2023-04-24T15:27:45;10.60;99.90
31046;DHT22;17711;54.018;9.300;2023-04-24T15:30:14;10.60;99.90
31046;DHT22;17711;54.018;9.300;2023-04-24T15:32:42;10.60;99.90
31046;DHT22;17711;54.018;9.300;2023-04-24T15:35:12;10.60;99.90
31046;DHT22;17711;54.018;9.300;2023-04-24T15:37:41;10.60;99.90
31046;DHT22;17711;54.018;9.300;2023-04-24T15:40:11;10.50;99.90
31046;DHT22;17711;54.018;9.300;2023-04-24T15:42:41;10.50;99.90
31046;DHT22;17711;54.018;9.300;2023-04-24T15:45:10;10.50;99.90
31046;DHT22;17711;54.018;9.300;2023-04-24T15:47:39;10.50;99.90